Terminal Aerodrome Forecast
Issued by NWS

Home | Current Version | Previous Version | Text Only | Print | Product List | Glossary On
Versions: 1 2 3 4 5 6 7 8 9 10 11 12 13 14 15 16 17 18 19 20 21 22 23 24 25 26 27 28
161
FTUS41 KBOX 272017 AAA
TAFHYA
TAF AMD
KHYA 272017Z 2720/2818 24005KT P6SM SCT008 OVC025
     FM280000 VRB03KT P6SM OVC008
     FM280300 VRB03KT 3SM BR OVC003
     FM280800 05005KT 2SM -DZ BR OVC003
     FM281500 04013G24KT 5SM -DZ BR OVC008=

USA.gov is the U.S. government's official web portal to all federal, state and local government web resources and services.